Time;durP1;ratioP1;P1;durP2;ratioP2;P2;SDS_P1;SDS_P2;PMS_P1;PMS_P2;Temp;Humidity;BMP_temperature;BMP_pressure;BME280_temperature;BME280_humidity;BME280_pressure;Samples;Min_cycle;Max_cycle;Signal;HPM_P1;HPM_P2
2022/11/08 00:03:16;;;;;;;;;;;;;13.70;97882.60;;;;108921;1272;41127;-60
2022/11/08 00:14:12;;;;;;;;;;;;;13.64;97880.00;;;;108927;1269;41209;-61
2022/11/08 00:16:41;;;;;;;;;;;;;13.62;97878.60;;;;108797;1269;42514;-60
2022/11/08 00:19:10;;;;;;;;;;;;;13.62;97884.60;;;;108848;1269;41233;-61
2022/11/08 00:21:39;;;;;;;;;;;;;13.60;97883.20;;;;108911;1272;41344;-60
2022/11/08 00:24:10;;;;;;;;;;;;;13.60;97883.40;;;;109035;1268;42225;-61
2022/11/08 00:26:39;;;;;;;;;;;;;13.60;97883.00;;;;109037;1268;41182;-61
2022/11/08 00:29:09;;;;;;;;;;;;;13.60;97879.60;;;;108950;1269;41292;-61
2022/11/08 00:31:39;;;;;;;;;;;;;13.60;97878.40;;;;109112;1269;41785;-60
2022/11/08 00:34:09;;;;;;;;;;;;;13.60;97878.80;;;;109000;1269;41180;-61
2022/11/08 00:36:39;;;;;;;;;;;;;13.56;97875.00;;;;109005;1269;41402;-60
2022/11/08 00:39:09;;;;;;;;;;;;;13.50;97878.20;;;;109035;1268;42633;-60
2022/11/08 00:41:39;;;;;;;;;;;;;13.50;97875.60;;;;109111;1269;41149;-61
2022/11/08 00:44:10;;;;;;;;;;;;;13.40;97873.80;;;;109030;1269;41777;-60
2022/11/08 00:46:41;;;;;;;;;;;;;13.40;97876.00;;;;109077;1270;42425;-61
2022/11/08 00:49:11;;;;;;;;;;;;;13.40;97871.20;;;;109005;1266;41648;-61
2022/11/08 00:51:43;;;;;;;;;;;;;13.32;97877.20;;;;109078;1269;42393;-60
2022/11/08 00:54:13;;;;;;;;;;;;;13.30;97870.80;;;;108942;1269;41227;-61
2022/11/08 00:56:44;;;;;;;;;;;;;13.30;97873.00;;;;108885;1269;41166;-62
2022/11/08 00:59:15;;;;;;;;;;;;;13.30;97871.40;;;;108912;1270;41151;-62
2022/11/08 01:01:46;;;;;;;;;;;;;13.30;97873.40;;;;109012;1269;41159;-62
2022/11/08 01:04:17;;;;;;;;;;;;;13.30;97873.20;;;;109020;1272;42629;-62
2022/11/08 01:06:47;;;;;;;;;;;;;13.30;97873.80;;;;109058;1269;41225;-62
2022/11/08 01:09:18;;;;;;;;;;;;;13.36;97870.40;;;;109046;1269;42389;-61
2022/11/08 01:11:48;;;;;;;;;;;;;13.30;97873.40;;;;109079;1269;41335;-62
2022/11/08 01:14:17;;;;;;;;;;;;;13.30;97873.00;;;;109009;1269;41256;-61
2022/11/08 01:16:47;;;;;;;;;;;;;13.30;97872.60;;;;108959;1269;41622;-61
2022/11/08 01:19:16;;;;;;;;;;;;;13.30;97867.80;;;;108973;1269;42416;-62
2022/11/08 01:21:47;;;;;;;;;;;;;13.20;97870.20;;;;109080;1269;41338;-62
2022/11/08 01:24:17;;;;;;;;;;;;;13.20;97871.60;;;;109052;1269;41641;-61
2022/11/08 01:26:49;;;;;;;;;;;;;13.20;97866.00;;;;109065;1268;42237;-61
2022/11/08 01:29:19;;;;;;;;;;;;;13.20;97871.40;;;;108999;1268;42389;-61
2022/11/08 01:31:48;;;;;;;;;;;;;13.20;97870.80;;;;109049;1268;41148;-61
2022/11/08 01:34:18;;;;;;;;;;;;;13.20;97872.40;;;;108973;1271;41222;-61
2022/11/08 01:36:48;;;;;;;;;;;;;13.20;97868.00;;;;108989;1269;41145;-61
2022/11/08 01:39:18;;;;;;;;;;;;;13.20;97871.20;;;;108986;1269;41887;-62
2022/11/08 01:41:49;;;;;;;;;;;;;13.10;97873.80;;;;108905;1269;41598;-62
2022/11/08 01:44:20;;;;;;;;;;;;;13.10;97871.20;;;;109050;1263;41174;-61
2022/11/08 01:46:51;;;;;;;;;;;;;13.10;97873.60;;;;109070;1267;41166;-62
2022/11/08 01:49:29;;;;;;;;;;;;;13.10;97871.40;;;;109034;1268;41161;-62
2022/11/08 01:52:11;;;;;;;;;;;;;13.10;97873.80;;;;109053;1268;41151;-62
2022/11/08 01:54:40;;;;;;;;;;;;;13.10;97873.40;;;;109098;1268;42141;-61
2022/11/08 01:57:11;;;;;;;;;;;;;13.00;97877.60;;;;109139;1268;41226;-61
2022/11/08 01:59:43;;;;;;;;;;;;;13.00;97874.60;;;;108959;1265;42270;-61
2022/11/08 02:02:13;;;;;;;;;;;;;13.00;97877.00;;;;108987;1269;41170;-60
2022/11/08 02:04:43;;;;;;;;;;;;;13.00;97873.00;;;;108953;1268;41208;-61
2022/11/08 02:07:13;;;;;;;;;;;;;13.00;97879.20;;;;108929;1269;41144;-61
2022/11/08 02:09:44;;;;;;;;;;;;;13.00;97877.00;;;;109004;1269;41319;-62
2022/11/08 02:12:13;;;;;;;;;;;;;13.00;97873.20;;;;108931;1269;41165;-62
2022/11/08 02:14:43;;;;;;;;;;;;;13.00;97877.60;;;;108937;1269;41153;-61
2022/11/08 02:17:13;;;;;;;;;;;;;13.00;97876.60;;;;109060;1264;41933;-62
2022/11/08 02:19:47;;;;;;;;;;;;;13.00;97876.20;;;;109055;1268;41693;-61
2022/11/08 02:22:21;;;;;;;;;;;;;13.02;97879.20;;;;109020;1268;41204;-62
2022/11/08 02:24:51;;;;;;;;;;;;;13.00;97886.20;;;;109030;1260;41149;-61
2022/11/08 02:27:21;;;;;;;;;;;;;13.00;97881.60;;;;108878;1262;41638;-61
2022/11/08 02:29:53;;;;;;;;;;;;;13.00;97882.40;;;;109012;1269;41152;-62
2022/11/08 02:32:23;;;;;;;;;;;;;13.00;97879.00;;;;108895;1269;41159;-62
2022/11/08 02:34:57;;;;;;;;;;;;;13.00;97885.80;;;;108984;1268;41152;-62
2022/11/08 02:37:27;;;;;;;;;;;;;13.00;97880.60;;;;108998;1269;40829;-62
2022/11/08 02:39:56;;;;;;;;;;;;;13.02;97887.40;;;;109010;1269;41379;-62
2022/11/08 02:42:26;;;;;;;;;;;;;13.06;97884.60;;;;108983;1269;41615;-62
2022/11/08 02:44:55;;;;;;;;;;;;;13.10;97888.40;;;;108993;1269;41152;-62
2022/11/08 02:47:25;;;;;;;;;;;;;13.10;97892.60;;;;108901;1269;41371;-62
2022/11/08 02:49:54;;;;;;;;;;;;;13.10;97891.20;;;;108936;1269;41155;-62
2022/11/08 02:52:24;;;;;;;;;;;;;13.10;97889.00;;;;109004;1269;41174;-63
2022/11/08 02:54:53;;;;;;;;;;;;;13.10;97894.60;;;;108929;1268;41678;-62
2022/11/08 02:57:23;;;;;;;;;;;;;13.10;97894.40;;;;108986;1268;41162;-62
2022/11/08 02:59:52;;;;;;;;;;;;;13.10;97888.40;;;;108977;1268;42581;-61
2022/11/08 03:02:22;;;;;;;;;;;;;13.10;97891.00;;;;108955;1268;41339;-61
2022/11/08 03:04:52;;;;;;;;;;;;;13.10;97889.60;;;;108966;1269;42776;-61
2022/11/08 03:07:21;;;;;;;;;;;;;13.10;97892.40;;;;108972;1269;41474;-62
2022/11/08 03:09:52;;;;;;;;;;;;;13.10;97895.40;;;;109014;1269;41153;-62
2022/11/08 03:12:21;;;;;;;;;;;;;13.10;97897.40;;;;109003;1268;41235;-63
2022/11/08 03:14:51;;;;;;;;;;;;;13.10;97899.00;;;;108977;1268;42050;-62
2022/11/08 03:17:21;;;;;;;;;;;;;13.10;97892.40;;;;108962;1268;41158;-62
2022/11/08 03:19:52;;;;;;;;;;;;;13.08;97902.20;;;;108894;1270;41143;-60
2022/11/08 03:22:22;;;;;;;;;;;;;13.02;97898.20;;;;108877;1269;42481;-60
2022/11/08 03:24:52;;;;;;;;;;;;;13.00;97899.00;;;;108833;1269;41346;-61
2022/11/08 03:27:22;;;;;;;;;;;;;13.00;97902.60;;;;108944;1269;41496;-62
2022/11/08 03:29:52;;;;;;;;;;;;;13.00;97899.40;;;;108955;1269;42202;-62
2022/11/08 03:32:21;;;;;;;;;;;;;13.00;97900.20;;;;109023;1264;41144;-62
2022/11/08 03:34:50;;;;;;;;;;;;;13.00;97899.80;;;;109034;1268;41242;-62
2022/11/08 03:37:22;;;;;;;;;;;;;13.00;97898.60;;;;109052;1268;41692;-62
2022/11/08 03:39:51;;;;;;;;;;;;;13.00;97896.80;;;;109051;1268;41230;-62
2022/11/08 03:42:20;;;;;;;;;;;;;13.00;97896.80;;;;109065;1268;41146;-62
2022/11/08 03:44:49;;;;;;;;;;;;;13.00;97900.20;;;;108932;1268;41212;-61
2022/11/08 03:47:20;;;;;;;;;;;;;13.00;97899.20;;;;108977;1270;41386;-62
2022/11/08 03:49:49;;;;;;;;;;;;;13.00;97896.00;;;;109024;1269;41944;-62
2022/11/08 03:52:18;;;;;;;;;;;;;13.00;97900.40;;;;108821;1271;41159;-61
2022/11/08 03:54:47;;;;;;;;;;;;;13.00;97900.80;;;;108932;1267;41227;-61
2022/11/08 03:57:17;;;;;;;;;;;;;13.00;97897.20;;;;109045;1268;41171;-61
2022/11/08 03:59:48;;;;;;;;;;;;;13.00;97894.60;;;;109054;1263;41179;-61
2022/11/08 04:02:17;;;;;;;;;;;;;13.00;97898.00;;;;109050;1268;41695;-62
2022/11/08 04:04:46;;;;;;;;;;;;;13.00;97897.40;;;;109102;1267;41400;-61
2022/11/08 04:07:15;;;;;;;;;;;;;13.00;97895.60;;;;109018;1268;42091;-62
2022/11/08 04:09:44;;;;;;;;;;;;;13.00;97897.20;;;;108954;1269;41716;-62
2022/11/08 04:15:16;;;;;;;;;;;;;13.02;97893.00;;;;108973;1257;41923;-62
2022/11/08 04:23:30;;;;;;;;;;;;;13.06;97898.40;;;;109131;1261;41602;-62
2022/11/08 04:26:00;;;;;;;;;;;;;13.04;97900.60;;;;108986;1269;41250;-62
2022/11/08 04:28:30;;;;;;;;;;;;;13.08;97905.00;;;;108951;1263;41132;-62
2022/11/08 04:30:59;;;;;;;;;;;;;13.10;97903.00;;;;108989;1259;41421;-61
2022/11/08 04:33:28;;;;;;;;;;;;;13.10;97902.80;;;;109009;1268;41243;-61
2022/11/08 04:36:04;;;;;;;;;;;;;13.10;97905.00;;;;108921;1268;41236;-61
2022/11/08 04:38:33;;;;;;;;;;;;;13.08;97904.40;;;;108904;1269;41939;-61
2022/11/08 04:41:03;;;;;;;;;;;;;13.02;97902.40;;;;108962;1269;41150;-62
2022/11/08 04:43:32;;;;;;;;;;;;;13.02;97908.80;;;;109020;1269;41201;-62
2022/11/08 04:46:05;;;;;;;;;;;;;13.00;97909.40;;;;108937;1269;42259;-62
2022/11/08 04:48:34;;;;;;;;;;;;;13.00;97911.20;;;;108788;1269;41602;-62
2022/11/08 04:51:06;;;;;;;;;;;;;13.00;97915.40;;;;108940;1270;41636;-62
2022/11/08 04:53:35;;;;;;;;;;;;;13.00;97918.60;;;;109110;1268;41431;-62
2022/11/08 04:56:05;;;;;;;;;;;;;13.00;97916.20;;;;109070;1267;41157;-62
2022/11/08 04:58:37;;;;;;;;;;;;;13.00;97916.60;;;;109061;1267;41138;-62
2022/11/08 05:01:07;;;;;;;;;;;;;13.00;97920.80;;;;109010;1268;42136;-61
2022/11/08 05:03:36;;;;;;;;;;;;;13.00;97922.80;;;;108984;1268;41233;-61
2022/11/08 05:06:06;;;;;;;;;;;;;13.00;97928.80;;;;108990;1268;41143;-62
2022/11/08 05:08:34;;;;;;;;;;;;;13.00;97928.60;;;;109054;1268;41454;-62
2022/11/08 05:11:07;;;;;;;;;;;;;13.00;97934.60;;;;109021;1267;41133;-62
2022/11/08 05:13:37;;;;;;;;;;;;;12.98;97934.20;;;;109021;1268;41243;-62
2022/11/08 05:16:07;;;;;;;;;;;;;12.98;97935.20;;;;109002;1268;41186;-62
2022/11/08 05:18:36;;;;;;;;;;;;;13.00;97941.40;;;;109059;1264;41172;-62
2022/11/08 05:23:53;;;;;;;;;;;;;12.92;97938.20;;;;109039;1266;41618;-62
2022/11/08 05:26:22;;;;;;;;;;;;;12.90;97942.00;;;;109021;1268;41154;-62
2022/11/08 05:28:51;;;;;;;;;;;;;12.90;97948.60;;;;109081;1261;41178;-62
2022/11/08 05:31:20;;;;;;;;;;;;;12.90;97948.80;;;;109013;1268;41243;-62
2022/11/08 05:33:48;;;;;;;;;;;;;12.90;97951.00;;;;109024;1268;41362;-62
2022/11/08 05:36:18;;;;;;;;;;;;;12.90;97954.00;;;;109047;1268;41632;-62
2022/11/08 05:38:46;;;;;;;;;;;;;12.90;97957.00;;;;109030;1268;41348;-62
2022/11/08 05:41:16;;;;;;;;;;;;;12.90;97960.60;;;;109021;1268;41322;-61
2022/11/08 05:43:46;;;;;;;;;;;;;12.90;97961.00;;;;109049;1268;41222;-62
2022/11/08 05:46:15;;;;;;;;;;;;;12.90;97962.40;;;;109073;1268;42260;-62
2022/11/08 05:48:45;;;;;;;;;;;;;12.90;97964.20;;;;109021;1268;41256;-61
2022/11/08 05:51:15;;;;;;;;;;;;;12.90;97963.20;;;;109049;1268;42404;-61
2022/11/08 05:53:45;;;;;;;;;;;;;12.90;97963.60;;;;109019;1268;42447;-62
2022/11/08 05:56:14;;;;;;;;;;;;;12.90;97968.60;;;;108990;1268;41177;-62
2022/11/08 05:58:43;;;;;;;;;;;;;12.90;97970.20;;;;108990;1268;41802;-61
2022/11/08 06:01:13;;;;;;;;;;;;;12.90;97976.00;;;;109054;1268;41239;-62
2022/11/08 06:03:42;;;;;;;;;;;;;12.90;97979.60;;;;109020;1268;41859;-62
2022/11/08 06:06:12;;;;;;;;;;;;;12.90;97980.00;;;;109049;1268;41591;-62
2022/11/08 06:08:40;;;;;;;;;;;;;12.90;97978.80;;;;109015;1268;41235;-62
2022/11/08 06:11:13;;;;;;;;;;;;;12.90;97977.80;;;;109089;1266;41465;-62
2022/11/08 06:13:42;;;;;;;;;;;;;12.90;97980.00;;;;109051;1268;41227;-62
2022/11/08 06:16:12;;;;;;;;;;;;;12.90;97983.80;;;;108952;1268;41174;-62
2022/11/08 06:18:40;;;;;;;;;;;;;12.90;97981.20;;;;108938;1268;41234;-61
2022/11/08 06:21:10;;;;;;;;;;;;;12.90;97981.80;;;;108940;1268;41144;-62
2022/11/08 06:23:39;;;;;;;;;;;;;13.00;97983.00;;;;108948;1268;41207;-60
2022/11/08 06:26:08;;;;;;;;;;;;;13.00;97983.60;;;;108963;1267;41123;-60
2022/11/08 06:28:36;;;;;;;;;;;;;13.00;97982.60;;;;108932;1268;41838;-62
2022/11/08 06:31:05;;;;;;;;;;;;;13.00;97981.00;;;;109009;1268;42561;-62
2022/11/08 06:33:34;;;;;;;;;;;;;13.02;97987.40;;;;109068;1268;42223;-61
2022/11/08 06:36:03;;;;;;;;;;;;;13.10;97990.60;;;;109023;1266;41366;-61
2022/11/08 06:38:32;;;;;;;;;;;;;13.10;97987.20;;;;109076;1268;41631;-61
2022/11/08 06:41:00;;;;;;;;;;;;;13.10;97988.60;;;;109047;1264;41231;-62
2022/11/08 06:43:29;;;;;;;;;;;;;13.10;97988.00;;;;109024;1268;41710;-62
2022/11/08 06:46:03;;;;;;;;;;;;;13.10;97987.60;;;;108966;1266;41237;-62
2022/11/08 06:48:32;;;;;;;;;;;;;13.16;97983.20;;;;109060;1266;42077;-61
2022/11/08 06:51:03;;;;;;;;;;;;;13.20;97983.20;;;;108987;1268;41845;-61
2022/11/08 06:53:32;;;;;;;;;;;;;13.20;97981.80;;;;108992;1268;41675;-61
2022/11/08 06:56:01;;;;;;;;;;;;;13.20;97988.00;;;;109004;1268;41166;-61
2022/11/08 06:58:30;;;;;;;;;;;;;13.20;97985.60;;;;109028;1268;41599;-61
2022/11/08 07:01:01;;;;;;;;;;;;;13.20;97989.40;;;;109080;1266;41153;-63
2022/11/08 07:03:30;;;;;;;;;;;;;13.20;97990.60;;;;109024;1265;41715;-62
2022/11/08 07:06:02;;;;;;;;;;;;;13.20;97989.00;;;;109029;1268;41369;-62
2022/11/08 07:08:31;;;;;;;;;;;;;13.20;97983.00;;;;109076;1264;41193;-63
2022/11/08 07:11:00;;;;;;;;;;;;;13.20;97984.20;;;;109032;1268;41139;-63
2022/11/08 07:13:29;;;;;;;;;;;;;13.20;97985.60;;;;109035;1268;41138;-62
2022/11/08 07:15:58;;;;;;;;;;;;;13.20;97985.20;;;;109054;1268;41807;-63
2022/11/08 07:18:27;;;;;;;;;;;;;13.24;97980.20;;;;109042;1268;41940;-63
2022/11/08 07:20:59;;;;;;;;;;;;;13.30;97980.00;;;;108946;1268;42430;-63
2022/11/08 07:23:28;;;;;;;;;;;;;13.30;97983.40;;;;109004;1267;41588;-63
2022/11/08 07:26:01;;;;;;;;;;;;;13.32;97988.40;;;;108988;1268;41245;-63
2022/11/08 07:28:31;;;;;;;;;;;;;13.40;97992.40;;;;108845;1268;219006;-63
2022/11/08 07:31:01;;;;;;;;;;;;;13.40;97992.00;;;;109058;1268;41248;-62
2022/11/08 07:33:29;;;;;;;;;;;;;13.46;97991.20;;;;109060;1264;41156;-63
2022/11/08 07:35:58;;;;;;;;;;;;;13.50;97993.80;;;;108958;1266;41672;-63
2022/11/08 07:38:26;;;;;;;;;;;;;13.50;97993.20;;;;108987;1268;41908;-63
2022/11/08 07:40:56;;;;;;;;;;;;;13.50;97994.80;;;;108971;1266;41229;-63
2022/11/08 07:43:26;;;;;;;;;;;;;13.60;97997.60;;;;108972;1260;41144;-63
2022/11/08 07:45:58;;;;;;;;;;;;;13.60;97999.00;;;;108981;1268;42133;-63
2022/11/08 07:48:27;;;;;;;;;;;;;13.70;97995.60;;;;108947;1268;41528;-63
2022/11/08 07:50:56;;;;;;;;;;;;;13.70;97994.80;;;;108962;1268;41250;-63
2022/11/08 07:53:25;;;;;;;;;;;;;13.80;97997.60;;;;108991;1266;41179;-63
2022/11/08 07:55:54;;;;;;;;;;;;;13.90;97999.80;;;;108976;1268;42519;-62
2022/11/08 07:58:22;;;;;;;;;;;;;13.90;97993.40;;;;108965;1268;41156;-63
2022/11/08 08:00:51;;;;;;;;;;;;;14.00;97993.40;;;;108981;1268;42153;-64
2022/11/08 08:03:20;;;;;;;;;;;;;14.04;97991.20;;;;109020;1260;41146;-63
2022/11/08 08:05:50;;;;;;;;;;;;;14.10;97989.80;;;;108997;1264;41165;-64
2022/11/08 08:08:21;;;;;;;;;;;;;14.20;97989.60;;;;109011;1268;41691;-63
2022/11/08 08:10:50;;;;;;;;;;;;;14.30;97990.80;;;;108993;1268;41338;-63
2022/11/08 08:13:19;;;;;;;;;;;;;14.30;97993.20;;;;108940;1268;41140;-63
2022/11/08 08:15:48;;;;;;;;;;;;;14.40;97992.20;;;;109034;1266;41221;-63
2022/11/08 08:18:19;;;;;;;;;;;;;14.40;97989.40;;;;108985;1268;41740;-63
2022/11/08 08:20:48;;;;;;;;;;;;;14.50;97990.20;;;;108979;1266;41258;-62
2022/11/08 08:23:16;;;;;;;;;;;;;14.60;97985.00;;;;108987;1268;41172;-63
2022/11/08 08:25:45;;;;;;;;;;;;;14.70;97990.40;;;;109019;1268;41141;-63
2022/11/08 08:28:14;;;;;;;;;;;;;14.90;97989.20;;;;109048;1268;41146;-63
2022/11/08 08:30:43;;;;;;;;;;;;;15.10;97993.80;;;;109060;1267;41829;-63
2022/11/08 08:33:13;;;;;;;;;;;;;15.30;97995.20;;;;109030;1266;41145;-63
2022/11/08 08:35:55;;;;;;;;;;;;;15.60;97997.00;;;;109017;1266;41236;-63
2022/11/08 08:38:24;;;;;;;;;;;;;15.90;97997.80;;;;108983;1268;41713;-63
2022/11/08 08:40:52;;;;;;;;;;;;;16.10;97996.00;;;;108945;1264;41354;-63
2022/11/08 08:43:21;;;;;;;;;;;;;16.30;97986.60;;;;108935;1268;41235;-63
2022/11/08 08:45:49;;;;;;;;;;;;;16.60;97994.40;;;;108966;1268;42485;-63
2022/11/08 08:48:18;;;;;;;;;;;;;16.80;97993.20;;;;109063;1264;41238;-64
2022/11/08 08:50:47;;;;;;;;;;;;;16.90;97993.80;;;;109036;1267;41156;-63
2022/11/08 08:53:16;;;;;;;;;;;;;17.08;97994.00;;;;109002;1268;41170;-63
2022/11/08 08:55:46;;;;;;;;;;;;;17.18;97991.60;;;;109059;1268;41134;-63
2022/11/08 08:58:15;;;;;;;;;;;;;17.20;97990.80;;;;109021;1268;41418;-63
2022/11/08 09:00:44;;;;;;;;;;;;;17.30;97995.20;;;;109058;1266;41160;-63
2022/11/08 09:03:33;;;;;;;;;;;;;17.28;97995.60;;;;109015;1268;41144;-63
2022/11/08 09:06:01;;;;;;;;;;;;;17.20;97997.60;;;;109040;1266;42891;-63
2022/11/08 09:08:30;;;;;;;;;;;;;17.20;97999.80;;;;109018;1268;41176;-65
2022/11/08 09:10:59;;;;;;;;;;;;;17.10;97997.00;;;;109009;1268;41726;-63
2022/11/08 09:13:29;;;;;;;;;;;;;17.00;98002.40;;;;108972;1266;41246;-63
2022/11/08 09:16:00;;;;;;;;;;;;;17.00;98000.60;;;;109008;1268;42215;-63
2022/11/08 09:18:29;;;;;;;;;;;;;16.90;98001.60;;;;109017;1268;41237;-63
2022/11/08 09:20:57;;;;;;;;;;;;;16.80;97997.00;;;;109054;1268;41600;-63
2022/11/08 09:23:28;;;;;;;;;;;;;16.80;98002.20;;;;108996;1268;42674;-63
2022/11/08 09:25:57;;;;;;;;;;;;;16.70;98002.20;;;;108997;1268;41243;-63
2022/11/08 09:28:26;;;;;;;;;;;;;16.70;98005.20;;;;108975;1268;41238;-63
2022/11/08 09:31:01;;;;;;;;;;;;;16.70;98001.40;;;;108974;1268;41147;-63
2022/11/08 09:33:30;;;;;;;;;;;;;16.62;98001.00;;;;109067;1266;41174;-63
2022/11/08 09:36:00;;;;;;;;;;;;;16.60;98000.40;;;;109052;1268;41171;-63
2022/11/08 09:38:29;;;;;;;;;;;;;16.50;98003.80;;;;109065;1268;41400;-63
2022/11/08 09:41:02;;;;;;;;;;;;;16.40;98004.60;;;;109070;1267;41442;-65
2022/11/08 09:43:31;;;;;;;;;;;;;16.40;98005.60;;;;109013;1267;41602;-65
2022/11/08 09:45:59;;;;;;;;;;;;;16.36;98005.20;;;;108988;1263;42540;-63
2022/11/08 09:48:29;;;;;;;;;;;;;16.30;98009.20;;;;109079;1269;41412;-63
2022/11/08 09:50:58;;;;;;;;;;;;;16.30;98012.20;;;;109031;1265;41826;-65
2022/11/08 09:53:33;;;;;;;;;;;;;16.20;98011.20;;;;109010;1268;41185;-63
2022/11/08 09:56:09;;;;;;;;;;;;;16.10;98019.20;;;;108992;1266;41694;-63
2022/11/08 09:58:50;;;;;;;;;;;;;16.00;98018.00;;;;108978;1268;41159;-63
2022/11/08 10:01:19;;;;;;;;;;;;;15.90;98017.00;;;;108992;1268;41689;-63
2022/11/08 10:03:53;;;;;;;;;;;;;15.90;98017.40;;;;109076;1268;41346;-64
2022/11/08 10:06:34;;;;;;;;;;;;;15.88;98013.80;;;;109052;1267;41341;-64
2022/11/08 10:09:22;;;;;;;;;;;;;15.90;98012.40;;;;109036;1266;41872;-63
2022/11/08 10:11:56;;;;;;;;;;;;;15.90;98006.00;;;;109085;1268;41652;-63
2022/11/08 10:14:40;;;;;;;;;;;;;15.90;98005.40;;;;109019;1268;41671;-62
2022/11/08 10:17:24;;;;;;;;;;;;;16.00;98003.20;;;;108995;1259;41739;-63
2022/11/08 10:19:52;;;;;;;;;;;;;16.10;98000.00;;;;108976;1261;41147;-63
2022/11/08 10:22:41;;;;;;;;;;;;;16.10;97998.00;;;;108986;1266;41650;-64
2022/11/08 10:25:21;;;;;;;;;;;;;16.10;97995.40;;;;109042;1268;42557;-64
2022/11/08 10:27:50;;;;;;;;;;;;;16.12;97996.80;;;;109030;1263;41836;-64
2022/11/08 10:30:19;;;;;;;;;;;;;16.12;98001.00;;;;109030;1265;41145;-64
2022/11/08 10:32:49;;;;;;;;;;;;;16.10;98001.20;;;;109034;1268;41306;-61
2022/11/08 10:35:30;;;;;;;;;;;;;16.20;97998.40;;;;109080;1268;41473;-63
2022/11/08 10:37:58;;;;;;;;;;;;;16.20;97994.20;;;;109071;1260;41153;-63
2022/11/08 10:40:29;;;;;;;;;;;;;16.20;97996.40;;;;108962;1268;41370;-63
2022/11/08 10:43:00;;;;;;;;;;;;;16.20;97998.40;;;;109030;1264;42068;-62
2022/11/08 10:45:32;;;;;;;;;;;;;16.20;97996.00;;;;108970;1267;42383;-63
2022/11/08 10:48:00;;;;;;;;;;;;;16.20;97999.00;;;;108963;1268;41358;-63
2022/11/08 10:50:49;;;;;;;;;;;;;16.20;97999.60;;;;109079;1268;41604;-64
2022/11/08 10:53:23;;;;;;;;;;;;;16.20;97999.60;;;;109054;1268;41244;-63
2022/11/08 10:55:57;;;;;;;;;;;;;16.20;97995.60;;;;109023;1268;42451;-63
2022/11/08 10:58:36;;;;;;;;;;;;;16.20;97996.60;;;;109044;1266;41248;-63
2022/11/08 11:01:04;;;;;;;;;;;;;16.20;97997.60;;;;109095;1264;41233;-63
2022/11/08 11:03:33;;;;;;;;;;;;;16.20;97990.60;;;;109042;1268;41790;-63
2022/11/08 11:06:02;;;;;;;;;;;;;16.18;97993.20;;;;108998;1268;41150;-65
2022/11/08 11:08:31;;;;;;;;;;;;;16.20;97994.20;;;;109047;1268;41157;-64
2022/11/08 11:11:14;;;;;;;;;;;;;16.18;97990.80;;;;109076;1268;41183;-64
2022/11/08 11:13:42;;;;;;;;;;;;;16.14;97988.00;;;;108988;1268;41156;-64
2022/11/08 11:16:12;;;;;;;;;;;;;16.10;97989.80;;;;109058;1264;41461;-63
2022/11/08 11:18:48;;;;;;;;;;;;;15.94;97988.80;;;;109067;1265;41153;-63
2022/11/08 11:21:17;;;;;;;;;;;;;15.70;97987.20;;;;109004;1268;41157;-64
2022/11/08 11:23:57;;;;;;;;;;;;;15.50;97984.00;;;;109088;1267;41191;-63
2022/11/08 11:26:28;;;;;;;;;;;;;15.40;97984.60;;;;108992;1267;41141;-63
2022/11/08 11:29:17;;;;;;;;;;;;;15.22;97990.60;;;;109035;1268;41770;-63
2022/11/08 11:31:46;;;;;;;;;;;;;15.10;97987.60;;;;109001;1267;41223;-63
2022/11/08 11:34:15;;;;;;;;;;;;;15.10;97987.20;;;;108996;1268;41229;-64
2022/11/08 11:36:56;;;;;;;;;;;;;15.08;97985.80;;;;109046;1268;41773;-63
2022/11/08 11:39:44;;;;;;;;;;;;;15.06;97986.80;;;;109020;1268;41621;-63
2022/11/08 11:42:22;;;;;;;;;;;;;15.00;97983.80;;;;109019;1266;41378;-64
2022/11/08 11:45:11;;;;;;;;;;;;;14.80;97981.60;;;;109076;1268;41156;-63
2022/11/08 11:47:48;;;;;;;;;;;;;14.70;97979.60;;;;109052;1266;41931;-62
2022/11/08 11:50:16;;;;;;;;;;;;;14.60;97970.80;;;;109038;1267;41638;-63
2022/11/08 11:52:45;;;;;;;;;;;;;14.60;97972.00;;;;108981;1265;41262;-63
2022/11/08 11:55:14;;;;;;;;;;;;;14.54;97974.20;;;;109047;1268;42488;-62
2022/11/08 11:57:50;;;;;;;;;;;;;14.50;97973.60;;;;108998;1267;41261;-63
2022/11/08 12:00:19;;;;;;;;;;;;;14.40;97978.00;;;;109037;1267;41231;-63
2022/11/08 12:02:47;;;;;;;;;;;;;14.30;97977.40;;;;108975;1261;41281;-63
2022/11/08 12:05:19;;;;;;;;;;;;;14.30;97978.00;;;;109061;1266;41276;-63
2022/11/08 12:07:57;;;;;;;;;;;;;14.26;97979.40;;;;109051;1267;41138;-63
2022/11/08 12:10:28;;;;;;;;;;;;;14.28;97981.40;;;;109040;1260;41140;-62
2022/11/08 12:12:56;;;;;;;;;;;;;14.20;97979.20;;;;109007;1263;41574;-63
2022/11/08 12:15:44;;;;;;;;;;;;;14.20;97982.00;;;;108948;1263;41252;-63
2022/11/08 12:18:22;;;;;;;;;;;;;14.20;97975.00;;;;109029;1263;42536;-62
2022/11/08 12:21:28;;;;;;;;;;;;;14.20;97976.20;;;;108997;1268;41240;-63
2022/11/08 12:24:23;;;;;;;;;;;;;14.20;97973.40;;;;109058;1267;41869;-63
2022/11/08 12:26:52;;;;;;;;;;;;;14.30;97973.40;;;;108903;1267;41408;-63
2022/11/08 12:29:32;;;;;;;;;;;;;14.30;97976.80;;;;109019;1268;41167;-63
2022/11/08 12:32:12;;;;;;;;;;;;;14.40;97972.00;;;;109058;1268;41596;-63
2022/11/08 12:34:41;;;;;;;;;;;;;14.50;97973.80;;;;108967;1268;41145;-63
2022/11/08 12:37:22;;;;;;;;;;;;;14.60;97968.20;;;;109045;1267;41665;-63
2022/11/08 12:40:00;;;;;;;;;;;;;14.80;97962.60;;;;109073;1268;41707;-64
2022/11/08 12:42:45;;;;;;;;;;;;;15.18;97953.80;;;;109067;1260;42414;-64
2022/11/08 12:45:23;;;;;;;;;;;;;15.90;97963.40;;;;109028;1268;41133;-63
2022/11/08 12:48:02;;;;;;;;;;;;;16.12;97967.40;;;;109126;1268;42430;-63
2022/11/08 12:50:37;;;;;;;;;;;;;16.30;97960.20;;;;108956;1268;41469;-63
2022/11/08 12:53:06;;;;;;;;;;;;;16.50;97963.80;;;;109008;1267;41128;-63
2022/11/08 12:55:35;;;;;;;;;;;;;16.60;97963.80;;;;108980;1268;41159;-63
2022/11/08 12:58:11;;;;;;;;;;;;;16.70;97966.60;;;;108858;1268;41588;-62
2022/11/08 13:00:39;;;;;;;;;;;;;16.70;97963.00;;;;109025;1266;42249;-63
2022/11/08 13:03:20;;;;;;;;;;;;;16.70;97960.40;;;;108895;1268;41175;-63
2022/11/08 13:05:51;;;;;;;;;;;;;17.56;97955.80;;;;109082;1268;41169;-63
2022/11/08 13:08:29;;;;;;;;;;;;;18.30;97954.00;;;;109047;1266;41804;-64
2022/11/08 13:11:08;;;;;;;;;;;;;18.30;97956.20;;;;109069;1268;41607;-63
2022/11/08 13:13:36;;;;;;;;;;;;;18.16;97959.20;;;;109058;1267;41170;-64
2022/11/08 13:16:07;;;;;;;;;;;;;18.08;97960.00;;;;108960;1265;41604;-63
2022/11/08 13:19:04;;;;;;;;;;;;;17.94;97965.60;;;;109000;1268;42361;-63
2022/11/08 13:21:39;;;;;;;;;;;;;17.80;97962.60;;;;109039;1267;41620;-64
2022/11/08 13:24:09;;;;;;;;;;;;;17.60;97964.20;;;;109023;1268;41463;-63
2022/11/08 13:27:17;;;;;;;;;;;;;17.30;97964.20;;;;108968;1268;41243;-63
2022/11/08 13:29:45;;;;;;;;;;;;;17.00;97969.40;;;;109047;1266;41164;-63
2022/11/08 13:32:20;;;;;;;;;;;;;16.80;97971.00;;;;108965;1268;42200;-63
2022/11/08 13:34:52;;;;;;;;;;;;;16.60;97972.20;;;;109078;1268;42094;-63
2022/11/08 13:37:40;;;;;;;;;;;;;16.50;97971.60;;;;109052;1268;41377;-63
2022/11/08 13:40:11;;;;;;;;;;;;;16.40;97975.20;;;;109023;1268;41232;-63
2022/11/08 13:42:42;;;;;;;;;;;;;16.30;97971.20;;;;109013;1268;41235;-63
2022/11/08 13:45:16;;;;;;;;;;;;;16.20;97974.40;;;;109016;1268;41235;-64
2022/11/08 13:47:47;;;;;;;;;;;;;16.20;97977.40;;;;109028;1266;41957;-63
2022/11/08 13:50:32;;;;;;;;;;;;;16.10;97973.00;;;;109044;1258;41647;-64
2022/11/08 13:53:08;;;;;;;;;;;;;16.10;97976.20;;;;109062;1268;41606;-64
2022/11/08 13:55:43;;;;;;;;;;;;;16.02;97976.00;;;;109070;1268;41622;-63
2022/11/08 13:58:29;;;;;;;;;;;;;16.00;97972.80;;;;109047;1267;41168;-64
2022/11/08 14:00:59;;;;;;;;;;;;;16.00;97977.80;;;;109075;1266;41391;-63
2022/11/08 14:03:31;;;;;;;;;;;;;16.00;97977.20;;;;109086;1267;41657;-64
2022/11/08 14:05:59;;;;;;;;;;;;;15.90;97980.80;;;;109048;1268;42211;-63
2022/11/08 14:08:29;;;;;;;;;;;;;15.90;97975.80;;;;109016;1268;41703;-63
2022/11/08 14:11:09;;;;;;;;;;;;;15.80;97979.20;;;;109094;1264;41413;-63
2022/11/08 14:13:46;;;;;;;;;;;;;15.80;97975.00;;;;109013;1266;41932;-63
2022/11/08 14:16:16;;;;;;;;;;;;;15.70;97977.00;;;;109033;1266;41397;-63